createdAt,value
2022-11-16T00:01:43.771Z,82.80
2022-11-16T00:06:52.688Z,82.79
2022-11-16T00:12:03.231Z,82.80
2022-11-16T00:17:11.752Z,82.78
2022-11-16T00:22:19.895Z,82.79
2022-11-16T00:27:28.519Z,82.78
2022-11-16T00:32:37.251Z,82.76
2022-11-16T00:37:45.787Z,82.76
2022-11-16T00:42:55.717Z,82.77
2022-11-16T00:48:03.857Z,82.76
2022-11-16T00:53:16.254Z,82.73
2022-11-16T00:58:25.005Z,82.68
2022-11-16T01:03:40.982Z,82.63
2022-11-16T01:08:49.729Z,82.55
2022-11-16T01:13:58.600Z,82.41
2022-11-16T01:19:08.138Z,82.23
2022-11-16T01:24:16.390Z,81.97
2022-11-16T01:29:25.166Z,81.69
2022-11-16T01:34:38.323Z,81.49
2022-11-16T01:39:57.670Z,81.37
2022-11-16T01:45:20.734Z,81.20
2022-11-16T01:50:31.245Z,81.06
2022-11-16T01:55:42.433Z,80.96
2022-11-16T02:01:03.853Z,80.89
2022-11-16T02:06:59.966Z,80.80
2022-11-16T02:12:39.586Z,80.72
2022-11-16T02:17:57.061Z,80.64
2022-11-16T02:23:35.867Z,80.48
2022-11-16T02:28:52.598Z,80.29
2022-11-16T02:34:01.948Z,80.03
2022-11-16T02:39:14.166Z,79.79
2022-11-16T02:44:27.680Z,79.69
2022-11-16T02:49:42.746Z,79.74
2022-11-16T02:54:50.090Z,79.73
2022-11-16T03:00:00.875Z,79.54
2022-11-16T03:05:11.596Z,79.36
2022-11-16T03:10:38.341Z,79.46
2022-11-16T03:15:49.068Z,79.15
2022-11-16T03:21:08.784Z,79.07
2022-11-16T03:26:23.119Z,79.07
2022-11-16T03:31:36.759Z,79.07
2022-11-16T03:36:48.456Z,79.08
2022-11-16T03:41:59.088Z,79.12
2022-11-16T03:47:07.925Z,79.08
2022-11-16T03:52:18.050Z,79.06
2022-11-16T03:57:28.355Z,79.06
2022-11-16T04:02:39.185Z,79.13
2022-11-16T04:08:07.202Z,79.20
2022-11-16T04:13:35.400Z,79.25
2022-11-16T04:19:01.555Z,79.26
2022-11-16T04:24:15.379Z,79.29
2022-11-16T04:29:24.173Z,79.36
2022-11-16T04:34:51.614Z,79.43
2022-11-16T04:40:00.227Z,79.48
2022-11-16T04:45:40.318Z,79.48
2022-11-16T04:50:49.913Z,79.50
2022-11-16T04:56:01.020Z,79.51
2022-11-16T05:01:09.798Z,79.55
2022-11-16T05:06:18.495Z,79.59
2022-11-16T05:11:27.186Z,79.58
2022-11-16T05:16:35.870Z,79.52
2022-11-16T05:21:45.113Z,79.42
2022-11-16T05:26:53.879Z,79.37
2022-11-16T05:32:03.751Z,79.41
2022-11-16T05:37:13.465Z,79.40
2022-11-16T05:42:22.681Z,79.37
2022-11-16T05:47:31.423Z,79.32
2022-11-16T05:52:41.090Z,79.32
2022-11-16T05:57:52.047Z,79.35
2022-11-16T06:03:01.326Z,79.40
2022-11-16T06:08:12.166Z,79.44
2022-11-16T06:13:21.402Z,79.44
2022-11-16T06:18:32.469Z,79.40
2022-11-16T06:23:41.306Z,79.45
2022-11-16T06:28:49.911Z,79.49
2022-11-16T06:33:59.817Z,79.42
2022-11-16T06:39:09.107Z,79.31
2022-11-16T06:44:18.143Z,79.25
2022-11-16T06:49:34.463Z,79.22
2022-11-16T06:54:47.681Z,79.26
2022-11-16T06:59:57.567Z,79.16
2022-11-16T07:05:06.230Z,79.08
2022-11-16T07:10:15.669Z,78.99
2022-11-16T07:15:24.674Z,78.94
2022-11-16T07:20:33.679Z,78.92
2022-11-16T07:25:47.267Z,78.91
2022-11-16T07:31:05.138Z,78.84
2022-11-16T07:36:17.269Z,78.80
2022-11-16T07:41:25.958Z,78.78
2022-11-16T07:46:49.287Z,78.62
2022-11-16T07:51:58.010Z,78.47
2022-11-16T07:57:26.807Z,78.41
2022-11-16T08:02:36.672Z,78.30
2022-11-16T08:07:45.848Z,78.29
2022-11-16T08:12:55.243Z,78.28
2022-11-16T08:18:05.464Z,78.30
2022-11-16T08:23:14.403Z,78.32
2022-11-16T08:28:23.762Z,78.36
2022-11-16T08:33:32.997Z,78.43
2022-11-16T08:38:42.100Z,78.48
2022-11-16T08:43:51.036Z,78.48
2022-11-16T08:49:01.261Z,78.42
2022-11-16T08:54:10.125Z,78.42
2022-11-16T08:59:20.099Z,78.38
2022-11-16T09:04:36.681Z,78.32
2022-11-16T09:09:44.462Z,78.26
2022-11-16T09:14:51.894Z,78.26
2022-11-16T09:19:59.616Z,78.29
2022-11-16T09:25:08.174Z,78.15
2022-11-16T09:30:18.019Z,77.95
2022-11-16T09:35:25.456Z,77.69
2022-11-16T09:40:36.924Z,77.40
2022-11-16T09:45:52.635Z,77.19
2022-11-16T09:51:02.218Z,77.29
2022-11-16T09:56:16.446Z,76.74
2022-11-16T10:01:31.778Z,76.50
2022-11-16T10:06:53.149Z,76.46
2022-11-16T10:12:17.414Z,76.51
2022-11-16T10:17:35.641Z,77.87
2022-11-16T10:22:54.110Z,77.42
2022-11-16T10:28:36.754Z,75.94
2022-11-16T10:33:43.057Z,74.91
2022-11-16T10:38:50.636Z,75.04
2022-11-16T10:44:00.942Z,75.36
2022-11-16T10:49:15.304Z,75.49
2022-11-16T10:54:22.763Z,75.48
2022-11-16T10:59:43.108Z,75.50
2022-11-16T11:05:17.904Z,75.09
2022-11-16T11:10:33.848Z,75.11
2022-11-16T11:15:42.884Z,75.33
2022-11-16T11:20:55.616Z,76.16
2022-11-16T11:26:07.650Z,76.00
2022-11-16T11:31:27.046Z,74.96
2022-11-16T11:36:41.813Z,74.62
2022-11-16T11:42:05.577Z,74.65
2022-11-16T11:53:06.014Z,74.97
2022-11-16T11:58:18.359Z,75.19
2022-11-16T12:03:47.174Z,75.62
2022-11-16T12:09:16.873Z,76.10
2022-11-16T12:14:42.826Z,74.88
2022-11-16T12:20:10.303Z,74.77
2022-11-16T12:25:28.275Z,74.66
2022-11-16T12:30:42.147Z,74.66
2022-11-16T12:36:10.392Z,74.71
2022-11-16T12:41:54.830Z,74.72
2022-11-16T12:47:10.878Z,74.71
2022-11-16T12:52:36.713Z,74.73
2022-11-16T12:57:53.905Z,74.86
2022-11-16T13:03:21.505Z,74.68
2022-11-16T13:08:40.178Z,74.63
2022-11-16T13:13:53.693Z,74.65
2022-11-16T13:19:03.722Z,74.60
2022-11-16T13:24:35.236Z,74.86
2022-11-16T13:29:52.241Z,75.05
2022-11-16T13:35:01.748Z,74.70
2022-11-16T13:40:31.072Z,74.47
2022-11-16T13:45:42.551Z,74.30
2022-11-16T13:50:55.302Z,74.01
2022-11-16T13:56:04.795Z,73.73
2022-11-16T14:01:16.067Z,72.88
2022-11-16T14:06:53.914Z,72.80
2022-11-16T14:12:21.542Z,72.99
2022-11-16T14:17:55.888Z,73.14
2022-11-16T14:23:18.599Z,73.32
2022-11-16T14:28:50.922Z,73.49
2022-11-16T14:34:01.361Z,73.65
2022-11-16T14:39:32.388Z,73.75
2022-11-16T14:44:42.519Z,73.88
2022-11-16T14:49:50.990Z,73.94
2022-11-16T14:55:01.111Z,74.05
2022-11-16T15:00:25.245Z,74.15
2022-11-16T15:05:35.782Z,74.20
2022-11-16T15:10:52.393Z,74.26
2022-11-16T15:16:22.183Z,74.30
2022-11-16T15:21:29.825Z,74.37
2022-11-16T15:26:40.401Z,74.41
2022-11-16T15:31:48.714Z,74.42
2022-11-16T15:36:56.347Z,74.47
2022-11-16T15:42:04.543Z,74.47
2022-11-16T15:47:15.832Z,74.47
2022-11-16T15:52:47.199Z,74.48
2022-11-16T15:58:15.006Z,74.50
2022-11-16T16:03:26.361Z,74.52
2022-11-16T16:08:38.545Z,74.55
2022-11-16T16:13:58.319Z,74.48
2022-11-16T16:19:10.402Z,74.44
2022-11-16T16:24:42.350Z,74.37
2022-11-16T16:29:51.574Z,74.28
2022-11-16T16:35:00.362Z,74.16
2022-11-16T16:40:09.858Z,74.03
2022-11-16T16:45:20.608Z,73.98
2022-11-16T16:50:28.353Z,73.93
2022-11-16T16:55:37.804Z,73.89
2022-11-16T17:00:46.106Z,73.87
2022-11-16T17:05:54.745Z,73.84
2022-11-16T17:11:02.258Z,73.79
2022-11-16T17:16:11.578Z,73.74
2022-11-16T17:21:19.061Z,73.74
2022-11-16T17:26:29.731Z,73.75
2022-11-16T17:31:41.805Z,73.76
2022-11-16T17:36:49.425Z,73.77
2022-11-16T17:41:56.873Z,75.33
2022-11-16T17:47:04.363Z,75.43
2022-11-16T17:52:11.718Z,74.42
2022-11-16T17:57:19.405Z,73.36
2022-11-16T18:02:26.787Z,72.24
2022-11-16T18:07:36.628Z,71.37
2022-11-16T18:12:44.348Z,70.57
2022-11-16T18:17:52.005Z,69.85
2022-11-16T18:23:00.093Z,69.15
2022-11-16T18:28:08.118Z,68.58
2022-11-16T18:33:16.832Z,68.13
2022-11-16T18:38:24.391Z,67.71
2022-11-16T18:43:32.245Z,67.37
2022-11-16T18:48:41.116Z,66.96
2022-11-16T18:53:48.879Z,66.61
2022-11-16T18:58:56.329Z,66.20
2022-11-16T19:04:04.219Z,65.98
2022-11-16T19:09:11.956Z,65.81
2022-11-16T19:14:19.399Z,65.68
2022-11-16T19:19:28.180Z,65.55
2022-11-16T19:24:35.550Z,65.38
2022-11-16T19:29:43.076Z,65.18
2022-11-16T19:34:50.996Z,65.12
2022-11-16T19:39:58.634Z,64.98
2022-11-16T19:45:06.565Z,64.94
2022-11-16T19:50:15.132Z,64.70
2022-11-16T19:55:22.676Z,64.47
2022-11-16T20:00:30.215Z,64.29
2022-11-16T20:05:37.559Z,64.21
2022-11-16T20:10:45.195Z,63.99
2022-11-16T20:15:52.655Z,63.82
2022-11-16T20:21:05.695Z,63.74
2022-11-16T20:26:14.991Z,63.66
2022-11-16T20:31:23.790Z,63.52
2022-11-16T20:36:33.441Z,63.35
2022-11-16T20:41:41.313Z,63.25
2022-11-16T20:46:49.396Z,63.10
2022-11-16T20:51:57.232Z,62.96
2022-11-16T20:57:05.134Z,62.80
2022-11-16T21:02:13.240Z,62.62
2022-11-16T21:07:21.115Z,62.60
2022-11-16T21:12:46.492Z,62.50
2022-11-16T21:17:54.193Z,62.46
2022-11-16T21:23:01.826Z,62.36
2022-11-16T21:28:09.507Z,62.32
2022-11-16T21:33:16.977Z,62.31
2022-11-16T21:38:25.985Z,62.27
2022-11-16T21:43:36.830Z,62.29
2022-11-16T21:48:45.394Z,62.28
2022-11-16T21:53:52.958Z,62.09
2022-11-16T21:59:00.500Z,61.94
2022-11-16T22:04:25.871Z,61.87
2022-11-16T22:09:33.405Z,61.90
2022-11-16T22:14:40.953Z,61.84
2022-11-16T22:19:48.779Z,61.69
2022-11-16T22:24:56.179Z,61.54
2022-11-16T22:30:03.982Z,61.46
2022-11-16T22:35:12.427Z,61.42
2022-11-16T22:40:20.336Z,61.40
2022-11-16T22:45:28.007Z,61.28
2022-11-16T22:50:35.343Z,61.25
2022-11-16T22:55:42.688Z,61.27
2022-11-16T23:00:50.449Z,61.40
2022-11-16T23:05:57.908Z,61.59
2022-11-16T23:11:25.304Z,61.81
2022-11-16T23:16:33.380Z,62.02
2022-11-16T23:21:58.246Z,62.03
2022-11-16T23:27:23.770Z,61.82
2022-11-16T23:32:31.797Z,61.74
2022-11-16T23:37:53.857Z,61.51
2022-11-16T23:43:18.959Z,61.27
2022-11-16T23:48:26.418Z,60.98
2022-11-16T23:53:34.078Z,60.75
2022-11-16T23:58:42.139Z,60.57
